Time;durP1;ratioP1;P1;durP2;ratioP2;P2;SDS_P1;SDS_P2;PMS_P1;PMS_P2;Temp;Humidity;BMP_temperature;BMP_pressure;BME280_temperature;BME280_humidity;BME280_pressure;Samples;Min_cycle;Max_cycle;Signal;HPM_P1;HPM_P2
2023/08/14 00:00:32;;;;;;;7.22;2.90;;;;;;;17.20;95.38;101130.00;4993529;28;20041;-63
2023/08/14 00:02:58;;;;;;;5.55;3.08;;;;;;;17.19;95.88;101130.91;5007077;28;20491;-63
2023/08/14 00:05:23;;;;;;;7.03;3.47;;;;;;;17.20;97.29;101125.63;5012198;28;20033;-63
2023/08/14 00:07:48;;;;;;;4.60;3.00;;;;;;;17.19;98.09;101130.91;5010502;28;20043;-63
2023/08/14 00:10:14;;;;;;;9.00;3.80;;;;;;;17.19;98.10;101123.91;5015224;28;20037;-63
2023/08/14 00:12:40;;;;;;;8.80;3.33;;;;;;;17.16;99.10;101134.47;5013286;28;20087;-63
2023/08/14 00:15:06;;;;;;;11.43;3.47;;;;;;;17.15;99.16;101130.16;5012644;28;20029;-63
2023/08/14 00:17:31;;;;;;;5.25;2.67;;;;;;;17.14;99.29;101135.41;5014079;28;20033;-63
2023/08/14 00:19:57;;;;;;;6.80;3.15;;;;;;;17.10;99.42;101142.47;5012197;28;20041;-63
2023/08/14 00:22:22;;;;;;;6.38;3.10;;;;;;;17.07;99.24;101137.34;5015792;28;20155;-63
2023/08/14 00:24:47;;;;;;;7.28;3.30;;;;;;;16.96;99.83;101135.94;5018730;28;20652;-63
2023/08/14 00:27:13;;;;;;;6.57;3.28;;;;;;;16.85;100.00;101131.91;5017304;28;20045;-63
2023/08/14 00:29:38;;;;;;;9.63;3.30;;;;;;;16.82;100.00;101131.13;5020043;28;20044;-63
2023/08/14 00:32:04;;;;;;;5.80;3.08;;;;;;;16.75;100.00;101124.31;5014380;28;20546;-63
2023/08/14 00:34:29;;;;;;;5.80;3.13;;;;;;;16.69;100.00;101127.94;5015365;28;20805;-63
2023/08/14 00:36:54;;;;;;;8.15;3.45;;;;;;;16.69;100.00;101122.72;4995815;28;20041;-63
2023/08/14 00:39:20;;;;;;;7.03;3.20;;;;;;;16.71;100.00;101117.47;5012513;28;20041;-63
2023/08/14 00:41:45;;;;;;;7.65;3.08;;;;;;;16.72;100.00;101109.59;5016862;28;20033;-64
2023/08/14 00:44:10;;;;;;;6.80;3.45;;;;;;;16.75;100.00;101106.03;5012984;28;20045;-64
2023/08/14 00:46:36;;;;;;;4.40;2.78;;;;;;;16.75;100.00;101100.81;5016120;28;20034;-64
2023/08/14 00:49:02;;;;;;;5.32;2.70;;;;;;;16.77;100.00;101104.28;5017286;28;20606;-64
2023/08/14 00:51:27;;;;;;;8.38;3.25;;;;;;;16.80;100.00;101099.81;5006121;28;20037;-64
2023/08/14 00:53:54;;;;;;;10.30;3.60;;;;;;;16.81;100.00;101106.75;5008834;28;20099;-63
2023/08/14 00:56:20;;;;;;;11.27;3.35;;;;;;;16.84;100.00;101106.66;5011727;28;20045;-64
2023/08/14 00:58:48;;;;;;;4.68;2.72;;;;;;;16.87;100.00;101113.56;4998676;28;20045;-64
2023/08/14 01:01:13;;;;;;;5.68;2.78;;;;;;;16.92;100.00;101103.81;5016567;28;20099;-63
2023/08/14 01:03:39;;;;;;;5.60;2.80;;;;;;;16.95;100.00;101102.91;5016492;28;20037;-64
2023/08/14 01:06:04;;;;;;;4.50;2.75;;;;;;;16.97;100.00;101098.50;5016776;28;20038;-63
2023/08/14 01:08:30;;;;;;;7.00;3.03;;;;;;;16.99;100.00;101102.75;5016009;28;20032;-62
2023/08/14 01:11:23;;;;;;;6.43;2.78;;;;;;;17.00;100.00;101101.00;5013867;28;20030;-63
2023/08/14 01:14:07;;;;;;;7.80;3.33;;;;;;;17.01;100.00;101100.13;5009281;28;20095;-65
2023/08/14 01:16:38;;;;;;;4.35;2.60;;;;;;;17.02;100.00;101101.81;5011332;28;20061;-63
2023/08/14 01:19:09;;;;;;;6.18;3.00;;;;;;;17.01;100.00;101103.56;5013336;28;20060;-63
2023/08/14 01:21:44;;;;;;;7.00;3.17;;;;;;;16.98;100.00;101098.44;5017219;28;20132;-63
2023/08/14 01:24:26;;;;;;;7.43;2.97;;;;;;;16.96;100.00;101095.00;5012905;28;21498;-63
2023/08/14 01:26:51;;;;;;;8.82;3.17;;;;;;;16.93;100.00;101091.63;5014344;28;20557;-63
2023/08/14 01:29:17;;;;;;;7.25;3.42;;;;;;;16.75;100.00;101091.22;5016886;28;20113;-63
2023/08/14 01:31:42;;;;;;;9.05;3.42;;;;;;;16.73;100.00;101093.03;5011775;28;20798;-63
2023/08/14 01:34:08;;;;;;;6.10;3.03;;;;;;;16.70;100.00;101087.06;5014863;28;20083;-63
2023/08/14 01:36:39;;;;;;;5.40;2.55;;;;;;;16.65;100.00;101087.16;5011326;28;20351;-63
2023/08/14 01:39:09;;;;;;;5.32;2.20;;;;;;;16.62;100.00;101084.63;5010218;28;20060;-64
2023/08/14 01:42:00;;;;;;;7.38;3.00;;;;;;;16.60;100.00;101078.63;5009418;28;20148;-63
2023/08/14 01:44:29;;;;;;;7.45;3.30;;;;;;;16.57;100.00;101080.44;5008743;28;20083;-63
2023/08/14 01:46:57;;;;;;;6.32;3.10;;;;;;;16.54;100.00;101070.97;5012201;28;20025;-63
2023/08/14 01:49:24;;;;;;;7.68;3.35;;;;;;;16.47;100.00;101074.66;5007594;28;20087;-63
2023/08/14 01:51:52;;;;;;;11.75;2.92;;;;;;;16.44;100.00;101069.53;5013115;28;20741;-63
2023/08/14 01:54:18;;;;;;;7.22;2.92;;;;;;;16.42;100.00;101060.00;5013243;28;22049;-63
2023/08/14 01:56:44;;;;;;;6.50;2.78;;;;;;;16.39;100.00;101060.06;5014289;28;20376;-63
2023/08/14 01:59:09;;;;;;;5.93;2.83;;;;;;;16.36;100.00;101061.03;5017149;28;20038;-63
2023/08/14 02:01:35;;;;;;;6.80;2.97;;;;;;;16.33;100.00;101050.66;5016150;28;20054;-63
2023/08/14 02:04:00;;;;;;;4.47;2.75;;;;;;;16.33;100.00;101054.13;5015251;28;20048;-63
2023/08/14 02:06:25;;;;;;;5.00;2.25;;;;;;;16.32;100.00;101051.59;5015298;28;20114;-63
2023/08/14 02:08:51;;;;;;;5.28;2.38;;;;;;;16.26;100.00;101050.00;5017884;28;20041;-63
2023/08/14 02:11:16;;;;;;;7.32;3.78;;;;;;;16.18;100.00;101048.47;5018339;28;20067;-63
2023/08/14 02:13:41;;;;;;;9.50;3.03;;;;;;;16.13;100.00;101046.00;5019472;28;20064;-63
2023/08/14 02:16:07;;;;;;;6.63;2.75;;;;;;;16.13;100.00;101043.41;5013057;28;20132;-63
2023/08/14 02:18:32;;;;;;;6.95;2.67;;;;;;;16.13;100.00;101034.72;5014834;28;20157;-64
2023/08/14 02:20:57;;;;;;;5.70;3.03;;;;;;;16.09;100.00;101036.53;5014619;28;20111;-63
2023/08/14 02:23:23;;;;;;;8.20;2.53;;;;;;;16.08;100.00;101039.19;5014623;28;20471;-63
2023/08/14 02:25:48;;;;;;;11.07;2.90;;;;;;;16.05;100.00;101034.06;5001530;28;20121;-63
2023/08/14 02:28:14;;;;;;;5.55;2.67;;;;;;;16.05;100.00;101034.06;5014536;28;20042;-63
2023/08/14 02:30:42;;;;;;;5.97;2.22;;;;;;;16.02;100.00;101028.94;5013927;28;20396;-63
2023/08/14 02:33:08;;;;;;;3.78;2.42;;;;;;;15.97;100.00;101034.25;5016536;28;20551;-63
2023/08/14 02:35:34;;;;;;;10.98;2.88;;;;;;;15.95;100.00;101036.06;5019519;28;20037;-63
2023/08/14 02:38:01;;;;;;;6.13;3.25;;;;;;;15.91;100.00;101037.00;5013782;28;20091;-63
2023/08/14 02:40:27;;;;;;;4.20;2.38;;;;;;;15.88;100.00;101033.66;5015630;28;20583;-62
2023/08/14 02:42:52;;;;;;;7.13;2.92;;;;;;;15.87;100.00;101035.41;5015154;28;20037;-63
2023/08/14 02:45:17;;;;;;;6.80;2.75;;;;;;;15.87;100.00;101032.78;4996115;28;20144;-63
2023/08/14 02:47:43;;;;;;;7.22;2.58;;;;;;;15.88;100.00;101038.88;5014944;28;20096;-63
2023/08/14 02:50:08;;;;;;;4.90;2.83;;;;;;;15.87;100.00;101034.53;5014506;28;20038;-63
2023/08/14 02:52:34;;;;;;;5.72;2.40;;;;;;;15.84;100.00;101035.47;5014438;28;20049;-63
2023/08/14 02:54:59;;;;;;;8.13;2.53;;;;;;;15.83;100.00;101038.13;5018813;28;20084;-63
2023/08/14 02:57:24;;;;;;;7.30;2.72;;;;;;;15.83;100.00;101043.31;5018782;28;20611;-63
2023/08/14 02:59:50;;;;;;;8.55;3.55;;;;;;;15.81;100.00;101038.16;5014283;28;20029;-62
2023/08/14 03:02:15;;;;;;;7.88;3.47;;;;;;;15.79;100.00;101037.31;5015192;28;20030;-63
2023/08/14 03:04:41;;;;;;;7.68;3.53;;;;;;;15.75;100.00;101030.50;5015778;28;20072;-63
2023/08/14 03:07:07;;;;;;;6.28;3.10;;;;;;;15.72;100.00;101028.84;5013944;28;20938;-63
2023/08/14 03:09:32;;;;;;;4.63;2.67;;;;;;;15.68;100.00;101032.41;5005746;28;20044;-62
2023/08/14 03:11:58;;;;;;;5.97;3.30;;;;;;;15.68;100.00;101035.00;5010046;28;20160;-63
2023/08/14 03:14:23;;;;;;;5.78;2.65;;;;;;;15.67;100.00;101035.88;4995292;28;20049;-63
2023/08/14 03:16:48;;;;;;;4.43;3.20;;;;;;;15.66;100.00;101035.94;5012816;28;20048;-63
2023/08/14 03:19:14;;;;;;;5.25;2.83;;;;;;;15.62;100.00;101039.47;5012916;28;20572;-63
2023/08/14 03:21:40;;;;;;;7.22;3.30;;;;;;;15.58;100.00;101030.88;5008881;28;20030;-63
2023/08/14 03:24:06;;;;;;;6.63;3.08;;;;;;;15.56;100.00;101030.06;5014783;28;20041;-63
2023/08/14 03:26:31;;;;;;;7.28;3.20;;;;;;;15.55;100.00;101032.72;5013290;28;20040;-63
2023/08/14 03:28:56;;;;;;;6.72;3.25;;;;;;;15.53;100.00;101029.28;5016541;28;20077;-63
2023/08/14 03:31:22;;;;;;;9.75;3.05;;;;;;;15.50;100.00;101034.56;5011197;28;20064;-63
2023/08/14 03:33:47;;;;;;;4.63;2.83;;;;;;;15.47;100.00;101025.06;5014703;28;20137;-63
2023/08/14 03:36:12;;;;;;;4.13;2.83;;;;;;;15.47;100.00;101019.88;5007204;28;20044;-63
2023/08/14 03:38:38;;;;;;;5.47;3.03;;;;;;;15.45;100.00;101029.47;5013054;28;20074;-63
2023/08/14 03:41:04;;;;;;;6.75;3.47;;;;;;;15.43;100.00;101027.81;4998059;28;20136;-63
2023/08/14 03:43:29;;;;;;;8.55;3.75;;;;;;;15.42;100.00;101028.69;5014857;28;20789;-62
2023/08/14 03:45:55;;;;;;;8.57;3.38;;;;;;;15.41;100.00;101019.16;5006263;28;20045;-63
2023/08/14 03:48:20;;;;;;;5.22;3.10;;;;;;;15.39;100.00;101024.41;5007460;28;20103;-63
2023/08/14 03:50:46;;;;;;;5.88;3.15;;;;;;;15.40;100.00;101033.94;5011803;28;20037;-63
2023/08/14 03:53:12;;;;;;;5.30;3.08;;;;;;;15.38;100.00;101020.06;5009470;28;20045;-63
2023/08/14 03:55:37;;;;;;;4.80;2.88;;;;;;;15.39;100.00;101021.81;5012588;28;20041;-63
2023/08/14 03:58:03;;;;;;;6.80;3.83;;;;;;;15.38;100.00;101025.28;5012319;28;20044;-62
2023/08/14 04:00:28;;;;;;;8.77;3.33;;;;;;;15.38;100.00;101016.63;5009229;28;20509;-63
2023/08/14 04:02:53;;;;;;;10.35;3.65;;;;;;;15.34;100.00;101017.59;5009877;28;20048;-63
2023/08/14 04:05:19;;;;;;;7.03;3.00;;;;;;;15.31;100.00;101017.66;5014296;28;20233;-63
2023/08/14 04:07:44;;;;;;;6.55;2.92;;;;;;;15.26;100.00;101011.69;5008859;28;20753;-63
2023/08/14 04:10:10;;;;;;;5.38;3.33;;;;;;;15.20;100.00;101010.09;5014311;28;20056;-63
2023/08/14 04:12:35;;;;;;;5.40;3.25;;;;;;;15.21;100.00;101006.59;5005265;28;20087;-63
2023/08/14 04:15:17;;;;;;;5.90;3.03;;;;;;;15.21;100.00;101011.81;5007240;28;20046;-63
2023/08/14 04:17:43;;;;;;;6.03;2.60;;;;;;;15.19;100.00;101006.66;5004984;28;20153;-63
2023/08/14 04:20:11;;;;;;;4.82;2.95;;;;;;;15.20;100.00;101010.97;5010997;28;20042;-63
2023/08/14 04:22:36;;;;;;;7.25;3.50;;;;;;;15.19;100.00;101013.63;5006314;28;20376;-63
2023/08/14 04:25:02;;;;;;;6.35;3.05;;;;;;;15.18;100.00;101010.16;5007925;28;20525;-63
2023/08/14 04:27:27;;;;;;;4.00;3.30;;;;;;;15.19;100.00;101011.88;5012385;28;20514;-63
2023/08/14 04:29:53;;;;;;;4.00;2.70;;;;;;;15.18;100.00;101002.34;5011122;28;20041;-62
2023/08/14 04:32:19;;;;;;;8.32;4.22;;;;;;;15.19;100.00;100998.84;5014135;28;20087;-63
2023/08/14 04:34:44;;;;;;;8.40;3.63;;;;;;;15.19;100.00;101003.19;5010942;28;20099;-61
2023/08/14 04:37:09;;;;;;;8.20;3.72;;;;;;;15.21;100.00;101001.41;5013427;28;20099;-61
2023/08/14 04:39:35;;;;;;;6.63;3.17;;;;;;;15.22;100.00;101005.72;5013079;28;20056;-61
2023/08/14 04:42:00;;;;;;;6.63;3.45;;;;;;;15.23;100.00;100997.88;5014863;28;20037;-61
2023/08/14 04:44:26;;;;;;;9.35;3.80;;;;;;;15.24;100.00;100998.72;5010839;28;20029;-61
2023/08/14 04:46:51;;;;;;;11.57;3.85;;;;;;;15.23;100.00;100991.78;5012136;28;20161;-61
2023/08/14 04:49:17;;;;;;;9.27;3.28;;;;;;;15.26;100.00;100999.53;5007116;28;20187;-61
2023/08/14 04:51:43;;;;;;;9.07;3.83;;;;;;;15.31;100.00;100995.09;5014927;28;20034;-61
2023/08/14 04:54:08;;;;;;;11.30;4.70;;;;;;;15.31;100.00;100992.50;5012130;28;20045;-61
2023/08/14 04:56:34;;;;;;;7.95;3.55;;;;;;;15.36;100.00;100998.44;5011712;28;20090;-61
2023/08/14 04:59:00;;;;;;;10.05;3.85;;;;;;;15.39;100.00;101005.31;5006422;28;20049;-61
2023/08/14 05:01:25;;;;;;;8.50;3.90;;;;;;;15.43;100.00;101007.81;5006956;28;20129;-61
2023/08/14 05:03:50;;;;;;;12.30;4.30;;;;;;;15.46;100.00;101005.16;5006048;28;20057;-61
2023/08/14 05:06:16;;;;;;;12.60;4.28;;;;;;;15.50;100.00;101005.91;5015329;28;20576;-61
2023/08/14 05:08:41;;;;;;;8.95;4.22;;;;;;;15.52;100.00;101001.53;5015850;28;20537;-66
2023/08/14 05:11:07;;;;;;;6.78;3.83;;;;;;;15.59;100.00;101003.06;5015563;28;20076;-66
2023/08/14 05:13:32;;;;;;;8.63;4.47;;;;;;;15.63;100.00;101003.00;5011526;28;20037;-66
2023/08/14 05:15:57;;;;;;;10.73;3.88;;;;;;;15.70;100.00;101003.72;5009859;28;20106;-66
2023/08/14 05:18:23;;;;;;;7.25;3.78;;;;;;;15.74;100.00;101005.31;5011480;28;20402;-65
2023/08/14 05:20:50;;;;;;;6.38;4.00;;;;;;;15.79;100.00;100994.78;5017534;28;20051;-65
2023/08/14 05:23:15;;;;;;;7.57;4.43;;;;;;;15.87;100.00;100998.03;5014523;28;20833;-66
2023/08/14 05:25:42;;;;;;;8.73;3.55;;;;;;;15.90;100.00;100992.75;5018071;28;20049;-65
2023/08/14 05:28:08;;;;;;;8.80;3.80;;;;;;;15.96;100.00;100996.06;5015147;28;20516;-65
2023/08/14 05:30:34;;;;;;;9.00;4.05;;;;;;;16.04;100.00;100996.69;5015749;28;20041;-65
2023/08/14 05:32:59;;;;;;;11.30;4.40;;;;;;;16.11;100.00;101000.88;4999526;28;20043;-65
2023/08/14 05:35:25;;;;;;;11.30;3.97;;;;;;;16.16;100.00;101003.34;5016287;28;20032;-65
2023/08/14 05:37:55;;;;;;;10.43;4.00;;;;;;;16.20;100.00;101000.63;5015399;28;20037;-66
2023/08/14 05:40:24;;;;;;;6.32;3.53;;;;;;;16.31;100.00;101005.53;5014873;28;20098;-66
2023/08/14 05:43:05;;;;;;;11.32;4.53;;;;;;;16.40;100.00;101001.78;5016496;28;20038;-66
2023/08/14 05:45:35;;;;;;;5.90;3.60;;;;;;;16.53;100.00;101011.00;4995342;28;20048;-66
2023/08/14 05:48:01;;;;;;;8.30;4.18;;;;;;;16.63;100.00;101018.50;5010565;28;20124;-65
2023/08/14 05:50:27;;;;;;;9.27;4.20;;;;;;;16.75;100.00;101015.53;5015424;28;20030;-66
2023/08/14 05:52:55;;;;;;;5.78;3.92;;;;;;;16.92;100.00;101020.28;5013169;28;20052;-66
2023/08/14 05:55:21;;;;;;;13.68;4.55;;;;;;;17.03;100.00;101023.44;4996793;28;20060;-66
2023/08/14 05:57:46;;;;;;;12.68;5.32;;;;;;;17.17;99.87;101021.25;5010952;28;20541;-66
2023/08/14 06:00:13;;;;;;;10.02;4.13;;;;;;;17.39;99.52;101024.88;4997402;28;20045;-66
2023/08/14 06:02:38;;;;;;;9.40;4.60;;;;;;;17.55;98.43;101016.53;5014866;28;20063;-66
2023/08/14 06:05:04;;;;;;;8.95;3.95;;;;;;;17.62;97.92;101003.22;5011892;28;20598;-66
2023/08/14 06:07:29;;;;;;;12.98;3.80;;;;;;;17.65;97.63;101003.13;5013473;28;20033;-66
2023/08/14 06:09:55;;;;;;;6.75;3.72;;;;;;;17.76;97.60;100995.75;5016081;28;20045;-66
2023/08/14 06:12:20;;;;;;;8.05;3.45;;;;;;;17.90;96.62;100998.78;5018279;28;20041;-65
2023/08/14 06:14:45;;;;;;;9.93;3.80;;;;;;;17.97;95.64;100981.97;5016719;28;20659;-65
2023/08/14 06:17:11;;;;;;;9.40;4.25;;;;;;;18.04;95.61;100985.25;5017157;28;20087;-65
2023/08/14 06:19:36;;;;;;;7.88;3.63;;;;;;;18.11;94.47;100981.47;5019145;28;20037;-65
2023/08/14 06:22:01;;;;;;;8.18;3.38;;;;;;;18.20;94.57;100983.75;5012542;28;20956;-65
2023/08/14 06:24:29;;;;;;;6.95;3.50;;;;;;;18.28;93.82;100989.59;4991727;28;20037;-65
2023/08/14 06:26:55;;;;;;;8.75;3.40;;;;;;;18.39;93.25;100983.94;5008223;28;20033;-64
2023/08/14 06:29:21;;;;;;;7.32;3.47;;;;;;;18.26;92.33;100973.06;5017215;28;20041;-65
2023/08/14 06:31:46;;;;;;;9.57;3.55;;;;;;;18.31;92.33;100991.25;5018633;28;20030;-65
2023/08/14 06:34:11;;;;;;;9.52;3.85;;;;;;;18.27;91.49;100979.16;5015606;28;20048;-65
2023/08/14 06:36:37;;;;;;;10.10;4.22;;;;;;;18.31;92.04;100993.84;5010975;28;20037;-65
2023/08/14 06:39:02;;;;;;;7.80;3.15;;;;;;;18.42;92.55;101005.63;4992149;28;20752;-65
2023/08/14 06:41:28;;;;;;;8.50;3.33;;;;;;;18.36;91.63;101002.38;4995258;28;20681;-65
2023/08/14 06:43:53;;;;;;;8.02;4.10;;;;;;;18.36;92.02;100995.41;4996743;28;20041;-65
2023/08/14 06:46:19;;;;;;;8.73;3.97;;;;;;;18.36;92.12;101000.63;5015589;28;20034;-65
2023/08/14 06:48:44;;;;;;;13.10;3.95;;;;;;;18.31;92.19;100997.34;5009143;28;20049;-65
2023/08/14 06:51:10;;;;;;;10.63;3.28;;;;;;;18.58;92.31;100994.59;5012579;28;20049;-65
2023/08/14 06:53:35;;;;;;;8.13;3.58;;;;;;;18.86;90.83;100980.41;5017777;28;20044;-65
2023/08/14 06:56:01;;;;;;;7.05;3.70;;;;;;;19.05;89.81;100976.19;4998980;28;20169;-65
2023/08/14 06:58:26;;;;;;;11.27;3.40;;;;;;;19.22;88.35;100970.25;5011222;28;20076;-65
2023/08/14 07:00:52;;;;;;;11.70;3.60;;;;;;;19.32;87.01;100963.72;5013081;28;20044;-65
2023/08/14 07:03:17;;;;;;;13.32;4.05;;;;;;;19.44;86.61;100971.06;5014563;28;20037;-65
2023/08/14 07:05:43;;;;;;;8.57;3.15;;;;;;;19.72;84.91;100967.28;5013986;28;20486;-60
2023/08/14 07:08:08;;;;;;;6.20;3.03;;;;;;;19.79;84.08;100958.28;5012136;28;20064;-60
2023/08/14 07:10:33;;;;;;;8.82;3.10;;;;;;;19.88;82.05;100955.25;5013178;28;20426;-60
2023/08/14 07:12:59;;;;;;;7.18;2.63;;;;;;;19.97;81.83;100953.09;5011891;28;20037;-60
2023/08/14 07:15:26;;;;;;;7.13;3.10;;;;;;;20.04;81.96;100964.13;5013573;28;20047;-61
2023/08/14 07:17:51;;;;;;;5.20;2.90;;;;;;;20.19;82.40;100973.97;5007901;28;20033;-61
2023/08/14 07:20:17;;;;;;;7.40;3.20;;;;;;;20.19;80.92;100971.34;5013473;28;20783;-61
2023/08/14 07:22:42;;;;;;;5.80;2.72;;;;;;;20.10;81.60;100964.72;5007937;28;20069;-61
2023/08/14 07:25:08;;;;;;;6.80;2.72;;;;;;;20.17;83.16;100984.53;5010696;28;20128;-61
2023/08/14 07:27:33;;;;;;;7.05;2.83;;;;;;;20.11;83.91;100984.81;5014187;28;20037;-60
2023/08/14 07:29:59;;;;;;;7.85;2.60;;;;;;;20.11;83.56;100984.81;5010520;28;20550;-59
2023/08/14 07:32:24;;;;;;;4.50;2.45;;;;;;;20.07;83.71;100977.13;5009456;28;20095;-61
2023/08/14 07:34:49;;;;;;;7.88;3.15;;;;;;;19.91;83.37;100970.88;5014685;28;20045;-60
2023/08/14 07:37:15;;;;;;;8.07;3.08;;;;;;;19.74;84.83;100976.78;5013713;28;20625;-61
2023/08/14 07:39:40;;;;;;;12.85;3.00;;;;;;;19.71;85.24;100966.41;5006278;28;20137;-62
2023/08/14 07:42:06;;;;;;;10.18;3.10;;;;;;;19.72;84.96;100969.91;5014309;28;20719;-62
2023/08/14 07:44:31;;;;;;;9.18;2.53;;;;;;;19.71;85.03;100963.81;5014121;28;20478;-60
2023/08/14 07:46:56;;;;;;;6.97;2.97;;;;;;;19.74;84.82;100968.09;5012598;28;20155;-60
2023/08/14 07:49:22;;;;;;;8.18;3.10;;;;;;;19.63;85.32;100971.16;5014756;28;20132;-60
2023/08/14 07:51:47;;;;;;;8.57;2.95;;;;;;;19.69;86.38;100975.28;5014532;28;20041;-60
2023/08/14 07:54:13;;;;;;;11.10;2.80;;;;;;;19.70;86.94;100977.00;5009762;28;20148;-60
2023/08/14 07:56:38;;;;;;;7.82;3.05;;;;;;;19.74;87.66;100968.91;5009174;28;20040;-60
2023/08/14 07:59:05;;;;;;;11.73;2.80;;;;;;;19.67;88.03;100971.88;5010658;28;20053;-62
2023/08/14 08:01:31;;;;;;;6.75;3.28;;;;;;;19.69;87.52;100967.41;5012946;28;20077;-61
2023/08/14 08:03:57;;;;;;;9.95;3.17;;;;;;;19.66;87.18;100976.25;5010141;28;20041;-62
2023/08/14 08:06:22;;;;;;;7.43;3.10;;;;;;;19.67;86.94;100985.84;5005689;28;20041;-61
2023/08/14 08:08:47;;;;;;;6.95;2.72;;;;;;;19.55;86.98;100994.22;5007676;28;20033;-61
2023/08/14 08:11:13;;;;;;;9.00;3.45;;;;;;;19.59;87.37;100990.56;5009761;28;20048;-62
2023/08/14 08:13:38;;;;;;;9.60;2.83;;;;;;;19.56;85.75;100977.59;5012336;28;20037;-61
2023/08/14 08:16:04;;;;;;;7.35;3.42;;;;;;;19.53;86.50;100977.72;5010660;28;20045;-61
2023/08/14 08:18:29;;;;;;;6.00;2.97;;;;;;;19.55;86.58;100981.13;5008331;28;20054;-60
2023/08/14 08:20:54;;;;;;;8.35;3.22;;;;;;;19.52;85.92;100997.84;5008615;28;20037;-60
2023/08/14 08:23:20;;;;;;;7.78;2.60;;;;;;;19.55;85.51;100992.47;5010925;28;20044;-60
2023/08/14 08:25:46;;;;;;;12.18;4.32;;;;;;;19.62;85.15;100986.03;5007162;28;20029;-60
2023/08/14 08:28:11;;;;;;;8.10;2.97;;;;;;;19.71;85.13;100974.28;5011685;28;20565;-60
2023/08/14 08:30:37;;;;;;;6.93;2.97;;;;;;;19.77;84.99;100974.03;5011733;28;20042;-60
2023/08/14 08:33:02;;;;;;;6.47;2.83;;;;;;;19.73;84.89;100987.34;5012887;28;20063;-60
2023/08/14 08:35:27;;;;;;;7.68;2.53;;;;;;;19.73;84.41;100977.72;5011860;28;20037;-59
2023/08/14 08:37:53;;;;;;;9.40;2.85;;;;;;;19.79;84.55;100974.00;5010680;28;20605;-59
2023/08/14 08:40:19;;;;;;;7.35;3.38;;;;;;;19.84;84.55;100980.75;5015554;28;20064;-59
2023/08/14 08:42:45;;;;;;;10.70;2.60;;;;;;;19.87;84.85;100979.78;5010860;28;20436;-60
2023/08/14 08:45:13;;;;;;;5.90;2.65;;;;;;;20.06;84.71;100986.81;5015254;28;20104;-60
2023/08/14 08:47:41;;;;;;;6.25;2.60;;;;;;;20.25;82.92;100980.72;5015995;28;20523;-60
2023/08/14 08:50:06;;;;;;;9.52;3.00;;;;;;;20.50;82.21;100983.94;5016481;28;20038;-60
2023/08/14 08:52:34;;;;;;;9.20;2.97;;;;;;;20.67;80.83;100989.28;5015153;28;20128;-60
2023/08/14 08:55:01;;;;;;;8.60;2.78;;;;;;;21.00;80.11;100984.25;5001540;28;20038;-60
2023/08/14 08:57:27;;;;;;;5.00;2.45;;;;;;;21.27;78.92;100994.28;5016947;28;20514;-60
2023/08/14 08:59:53;;;;;;;6.72;2.92;;;;;;;21.32;79.43;100985.31;5009757;28;20125;-61
2023/08/14 09:02:18;;;;;;;5.40;2.47;;;;;;;21.38;78.35;100979.75;5016887;28;20025;-60
2023/08/14 09:04:44;;;;;;;5.38;1.88;;;;;;;21.47;77.27;100979.28;5012347;28;20116;-60
2023/08/14 09:07:10;;;;;;;10.30;2.75;;;;;;;21.39;75.66;100961.28;5004603;28;20643;-60
2023/08/14 09:09:35;;;;;;;5.20;2.80;;;;;;;21.38;75.86;100966.59;5017107;28;20041;-60
2023/08/14 09:12:01;;;;;;;7.22;2.47;;;;;;;21.36;75.37;100955.31;5018112;28;20037;-60
2023/08/14 09:14:26;;;;;;;7.05;2.60;;;;;;;21.53;75.90;100976.34;5022032;28;20030;-60
2023/08/14 09:16:53;;;;;;;8.07;2.78;;;;;;;21.63;74.74;100951.31;5004203;28;20172;-60
2023/08/14 09:19:19;;;;;;;5.63;2.40;;;;;;;21.86;73.63;100943.09;5014985;28;20048;-60
2023/08/14 09:21:44;;;;;;;8.77;2.40;;;;;;;21.97;73.37;100938.13;5018865;28;20033;-60
2023/08/14 09:24:13;;;;;;;13.07;2.83;;;;;;;21.97;72.92;100940.75;5019075;28;20043;-60
2023/08/14 09:26:43;;;;;;;7.00;2.47;;;;;;;22.14;72.70;100947.78;5012647;28;20048;-61
2023/08/14 09:29:09;;;;;;;7.95;2.40;;;;;;;22.32;71.94;100933.63;5012133;28;20096;-60
2023/08/14 09:31:34;;;;;;;9.93;2.40;;;;;;;22.59;70.47;100916.31;5013932;28;20045;-61
2023/08/14 09:34:01;;;;;;;8.00;2.67;;;;;;;22.86;69.20;100911.28;5013704;28;20063;-60
2023/08/14 09:36:33;;;;;;;8.20;2.80;;;;;;;22.89;67.43;100890.88;5015905;28;20037;-61
2023/08/14 09:39:00;;;;;;;9.65;2.22;;;;;;;22.89;68.28;100919.88;5015030;28;20829;-61
2023/08/14 09:41:25;;;;;;;7.10;2.47;;;;;;;23.02;68.08;100909.50;5020478;28;20049;-64
2023/08/14 09:43:50;;;;;;;7.18;2.17;;;;;;;22.89;68.29;100916.38;4996756;28;20038;-64
2023/08/14 09:46:18;;;;;;;6.22;2.10;;;;;;;22.84;69.27;100929.84;4992732;28;20494;-63
2023/08/14 09:48:48;;;;;;;4.55;2.30;;;;;;;22.97;69.12;100921.22;5012795;28;20045;-63
2023/08/14 09:51:18;;;;;;;12.10;3.10;;;;;;;23.17;69.36;100913.03;5017337;28;20045;-64
2023/08/14 09:53:47;;;;;;;5.65;2.60;;;;;;;23.31;68.41;100897.25;5015808;28;20455;-64
2023/08/14 09:56:13;;;;;;;13.18;5.32;;;;;;;23.40;67.63;100886.19;4996556;28;20518;-64
2023/08/14 09:58:39;;;;;;;10.30;3.25;;;;;;;23.65;67.76;100899.63;5013523;28;20092;-64
2023/08/14 10:01:06;;;;;;;6.50;2.50;;;;;;;23.61;67.10;100882.25;5012940;28;20042;-61
2023/08/14 10:03:33;;;;;;;4.05;2.40;;;;;;;23.76;68.26;100899.81;5011388;28;20200;-61
2023/08/14 10:06:01;;;;;;;7.90;2.63;;;;;;;23.79;66.89;100864.44;5012017;28;20037;-61
2023/08/14 10:08:28;;;;;;;12.95;2.70;;;;;;;23.93;65.90;100854.72;5011590;28;20030;-61
2023/08/14 10:10:54;;;;;;;5.45;2.10;;;;;;;24.23;65.46;100862.56;5014074;28;20037;-61
2023/08/14 10:13:20;;;;;;;6.28;2.20;;;;;;;24.49;64.89;100856.47;5014661;28;20037;-61
2023/08/14 10:15:48;;;;;;;5.68;1.95;;;;;;;24.80;65.03;100860.66;5008204;28;20045;-61
2023/08/14 10:18:16;;;;;;;7.70;2.28;;;;;;;25.14;64.24;100851.31;5011838;28;20056;-61
2023/08/14 10:20:43;;;;;;;9.50;2.63;;;;;;;24.97;62.47;100833.91;5014945;28;20502;-61
2023/08/14 10:23:09;;;;;;;7.55;2.63;;;;;;;25.04;63.01;100851.09;5013071;28;20756;-61
2023/08/14 10:25:39;;;;;;;5.32;1.98;;;;;;;25.45;62.25;100842.16;5014393;28;20547;-61
2023/08/14 10:28:09;;;;;;;8.57;2.17;;;;;;;25.42;61.61;100822.06;5010306;28;20042;-61
2023/08/14 10:30:36;;;;;;;7.40;2.80;;;;;;;25.62;60.86;100808.28;5008784;28;20037;-61
2023/08/14 10:33:02;;;;;;;7.75;2.40;;;;;;;25.78;61.24;100808.06;5014815;28;20072;-61
2023/08/14 10:35:28;;;;;;;7.03;1.90;;;;;;;26.23;60.53;100792.50;5016425;28;20056;-62
2023/08/14 10:37:53;;;;;;;4.40;1.83;;;;;;;26.23;58.00;100758.06;4999122;28;20108;-61
2023/08/14 10:40:20;;;;;;;5.07;2.35;;;;;;;26.36;59.04;100777.41;5008728;28;20133;-61
2023/08/14 10:42:47;;;;;;;6.45;2.22;;;;;;;26.52;58.87;100783.25;5015062;28;20037;-61
2023/08/14 10:45:17;;;;;;;5.60;2.15;;;;;;;26.78;57.88;100768.91;5005878;28;20042;-61
2023/08/14 10:47:44;;;;;;;8.40;2.30;;;;;;;26.72;59.03;100802.03;5014412;28;20024;-60
2023/08/14 10:50:15;;;;;;;6.45;2.17;;;;;;;26.91;59.31;100804.19;5015315;28;20048;-61
2023/08/14 10:52:54;;;;;;;6.05;2.42;;;;;;;26.83;56.37;100773.88;5009021;28;20120;-61
2023/08/14 10:55:44;;;;;;;7.55;1.90;;;;;;;26.75;57.90;100813.38;4996282;28;20069;-62
2023/08/14 10:58:27;;;;;;;5.30;1.98;;;;;;;26.36;59.38;100836.53;5011362;28;20038;-61
2023/08/14 11:00:53;;;;;;;4.00;2.37;;;;;;;26.13;59.99;100862.06;5014450;28;20061;-61
2023/08/14 11:03:19;;;;;;;6.15;2.78;;;;;;;25.88;58.93;100832.94;5012089;28;20056;-61
2023/08/14 11:05:44;;;;;;;7.97;2.40;;;;;;;25.79;60.91;100873.31;5006709;28;20616;-62
2023/08/14 11:08:11;;;;;;;4.63;2.25;;;;;;;25.65;62.39;100902.53;5011382;28;20037;-61
2023/08/14 11:10:38;;;;;;;6.45;2.25;;;;;;;25.50;63.09;100915.00;4997051;28;20037;-61
2023/08/14 11:13:09;;;;;;;7.28;2.30;;;;;;;25.27;64.45;100934.19;5015962;28;20841;-61
2023/08/14 11:15:35;;;;;;;5.82;2.47;;;;;;;24.95;65.75;100957.50;4994216;28;20153;-61